Time;durP1;ratioP1;P1;durP2;ratioP2;P2;SDS_P1;SDS_P2;PMS_P1;PMS_P2;Temp;Humidity;BMP_temperature;BMP_pressure;BME280_temperature;BME280_humidity;BME280_pressure;Samples;Min_cycle;Max_cycle;Signal;HPM_P1;HPM_P2
2024/03/06 03:14:25;;;;;;;4.07;2.72;;;;;;;;;;5536186;23;20048;-89
2024/03/06 03:17:13;;;;;;;3.70;1.70;;;;;;;;;;4919929;29;20028;-89
2024/03/06 03:19:59;;;;;;;3.70;2.05;;;;;;;;;;4911807;29;20513;-89
2024/03/06 03:22:44;;;;;;;4.05;2.20;;;;;;;;;;4919465;29;20056;-89
2024/03/06 03:28:52;;;;;;;4.13;2.10;;;;;;;;;;4931860;29;20026;-88
2024/03/06 03:55:10;;;;;;;4.30;1.90;;;;;;;;;;4936724;29;20091;-86
2024/03/06 04:27:53;;;;;;;5.40;2.53;;;;;;;;;;4982727;23;1276360;-91
2024/03/06 04:41:35;;;;;;;;;;;;;;;;;;;;;
2024/03/06 04:44:38;;;;;;;8.43;3.90;;;;;;;;;;4892108;29;20052;-90
2024/03/06 04:51:25;;;;;;;9.32;4.53;;;;;;;;;;4910047;29;20028;-93
2024/03/06 04:54:11;;;;;;;8.18;3.20;;;;;;;;;;4891064;29;20045;-89
2024/03/06 04:57:26;;;;;;;5.55;2.50;;;;;;;;;;4935214;29;20181;-91
2024/03/06 05:11:03;;;;;;;7.75;3.10;;;;;;;;;;4914078;29;20462;-90
2024/03/06 05:14:20;;;;;;;6.25;3.10;;;;;;;;;;4910583;29;20051;-92
2024/03/06 05:17:14;;;;;;;5.43;2.33;;;;;;;;;;4893250;29;20041;-89
2024/03/06 05:27:00;;;;;;;5.57;3.38;;;;;;;;;;4874071;29;20049;-91
2024/03/06 05:29:45;;;;;;;4.88;2.80;;;;;;;;;;4893612;29;20325;-90
2024/03/06 05:33:07;;;;;;;;;;;;;;;;;;;;;
2024/03/06 05:35:55;;;;;;;6.90;3.45;;;;;;;;;;4871925;29;20127;-89
2024/03/06 05:38:58;;;;;;;10.15;4.13;;;;;;;;;;4906029;29;20046;-90
2024/03/06 05:42:12;;;;;;;6.68;3.08;;;;;;;;;;4897210;29;20069;-92
2024/03/06 05:45:10;;;;;;;8.52;4.07;;;;;;;;;;4870998;29;20060;-93
2024/03/06 05:48:03;;;;;;;7.95;3.63;;;;;;;;;;4883213;29;20059;-91
2024/03/06 05:50:53;;;;;;;6.03;3.60;;;;;;;;;;4890520;29;20035;-90
2024/03/06 05:53:40;;;;;;;6.38;4.15;;;;;;;;;;4909680;29;20028;-90
2024/03/06 05:56:25;;;;;;;9.27;4.78;;;;;;;;;;4897122;29;20360;-90
2024/03/06 05:59:19;;;;;;;8.68;4.10;;;;;;;;;;4886783;29;20037;-90
2024/03/06 06:02:05;;;;;;;7.13;4.20;;;;;;;;;;4898504;29;20387;-90
2024/03/06 06:04:50;;;;;;;7.72;4.25;;;;;;;;;;4896502;29;20028;-90
2024/03/06 06:07:37;;;;;;;9.65;4.78;;;;;;;;;;4897332;29;20030;-89
2024/03/06 06:10:26;;;;;;;8.88;4.50;;;;;;;;;;4889005;29;20028;-90
2024/03/06 06:13:11;;;;;;;11.68;4.97;;;;;;;;;;4897167;29;20039;-88
2024/03/06 06:16:02;;;;;;;10.82;4.82;;;;;;;;;;4907071;29;20055;-87
2024/03/06 06:18:48;;;;;;;8.80;4.95;;;;;;;;;;4910400;29;20103;-88
2024/03/06 06:21:35;;;;;;;9.52;5.43;;;;;;;;;;4896161;29;20491;-91
2024/03/06 06:24:23;;;;;;;10.40;4.60;;;;;;;;;;4910842;29;20032;-90
2024/03/06 06:27:09;;;;;;;10.98;4.18;;;;;;;;;;4897772;29;20027;-90
2024/03/06 06:29:55;;;;;;;7.68;3.88;;;;;;;;;;4896639;29;20043;-85
2024/03/06 06:32:40;;;;;;;12.10;5.68;;;;;;;;;;4908810;29;20032;-88
2024/03/06 06:35:27;;;;;;;9.90;4.43;;;;;;;;;;4910286;29;20040;-86
2024/03/06 06:38:12;;;;;;;10.00;4.22;;;;;;;;;;4896165;29;20123;-85
2024/03/06 06:40:57;;;;;;;7.65;4.47;;;;;;;;;;4884250;29;20031;-85
2024/03/06 06:43:43;;;;;;;8.70;4.75;;;;;;;;;;4896035;29;20043;-84
2024/03/06 06:49:55;;;;;;;12.00;4.53;;;;;;;;;;4892100;29;20127;-85
2024/03/06 06:52:40;;;;;;;10.35;6.13;;;;;;;;;;4894909;29;20046;-84
2024/03/06 06:55:26;;;;;;;9.45;4.70;;;;;;;;;;4895814;29;20028;-84
2024/03/06 06:58:12;;;;;;;7.90;4.47;;;;;;;;;;4896400;29;20032;-85
2024/03/06 07:00:57;;;;;;;11.38;5.03;;;;;;;;;;4891850;29;20064;-84
2024/03/06 07:03:42;;;;;;;9.85;5.65;;;;;;;;;;4896520;29;20032;-83
2024/03/06 07:06:27;;;;;;;10.63;5.22;;;;;;;;;;4895586;29;20506;-84
2024/03/06 07:09:15;;;;;;;12.38;6.20;;;;;;;;;;4895726;29;20028;-85
2024/03/06 07:12:01;;;;;;;9.80;4.93;;;;;;;;;;4894240;29;20500;-75
2024/03/06 07:14:46;;;;;;;7.57;4.47;;;;;;;;;;4890231;29;20172;-79
2024/03/06 07:17:34;;;;;;;12.57;5.60;;;;;;;;;;4892941;29;20379;-85
2024/03/06 07:20:20;;;;;;;7.40;4.35;;;;;;;;;;4898716;29;20020;-84
2024/03/06 07:23:05;;;;;;;7.88;4.32;;;;;;;;;;4892820;29;20084;-87
2024/03/06 07:25:50;;;;;;;7.78;3.97;;;;;;;;;;4891446;29;20602;-88
2024/03/06 07:28:37;;;;;;;8.10;4.70;;;;;;;;;;4891172;29;20103;-85
2024/03/06 07:31:22;;;;;;;9.75;4.85;;;;;;;;;;4903202;29;20020;-87
2024/03/06 07:34:08;;;;;;;7.60;4.32;;;;;;;;;;4878422;29;20545;-87
2024/03/06 07:36:53;;;;;;;8.07;4.63;;;;;;;;;;4899500;29;20036;-86
2024/03/06 07:39:39;;;;;;;12.43;4.95;;;;;;;;;;4898712;29;20361;-87
2024/03/06 07:42:24;;;;;;;11.15;5.22;;;;;;;;;;4897232;29;20578;-86
2024/03/06 07:45:09;;;;;;;8.75;4.93;;;;;;;;;;4888528;29;20069;-87
2024/03/06 07:47:55;;;;;;;9.63;4.93;;;;;;;;;;4898461;29;20536;-87
2024/03/06 07:50:41;;;;;;;6.95;4.28;;;;;;;;;;4891301;29;20064;-87
2024/03/06 07:53:27;;;;;;;7.82;4.35;;;;;;;;;;4904417;29;20036;-87
2024/03/06 07:56:13;;;;;;;11.05;4.72;;;;;;;;;;4905925;29;20020;-87
2024/03/06 07:58:58;;;;;;;8.45;4.75;;;;;;;;;;4905083;29;20039;-88
2024/03/06 08:01:43;;;;;;;12.23;6.50;;;;;;;;;;4901845;29;20042;-89
2024/03/06 08:04:29;;;;;;;13.50;5.50;;;;;;;;;;4898595;29;20028;-87
2024/03/06 08:07:13;;;;;;;11.23;5.50;;;;;;;;;;4904342;29;20060;-85
2024/03/06 08:10:00;;;;;;;8.07;5.05;;;;;;;;;;4900215;29;20055;-84
2024/03/06 08:12:47;;;;;;;13.27;5.20;;;;;;;;;;4895527;29;20115;-84
2024/03/06 08:15:33;;;;;;;9.90;5.22;;;;;;;;;;4885561;29;20031;-87
2024/03/06 08:18:18;;;;;;;9.15;4.85;;;;;;;;;;4897408;29;20068;-86
2024/03/06 08:21:05;;;;;;;8.88;4.40;;;;;;;;;;4892349;29;20025;-86
2024/03/06 08:23:50;;;;;;;9.95;4.97;;;;;;;;;;4901020;29;20028;-86
2024/03/06 08:26:36;;;;;;;8.27;4.93;;;;;;;;;;4909400;29;20036;-85
2024/03/06 08:29:21;;;;;;;13.52;5.43;;;;;;;;;;4905163;29;20076;-86
2024/03/06 08:32:06;;;;;;;8.27;4.38;;;;;;;;;;4898104;29;20043;-87
2024/03/06 08:34:51;;;;;;;6.63;3.95;;;;;;;;;;4905978;29;20368;-86
2024/03/06 08:37:38;;;;;;;7.03;3.88;;;;;;;;;;4907633;29;20032;-86
2024/03/06 08:40:25;;;;;;;9.68;4.57;;;;;;;;;;4897149;29;20046;-87
2024/03/06 08:43:12;;;;;;;14.55;5.97;;;;;;;;;;4894579;29;20044;-84
2024/03/06 08:45:58;;;;;;;12.40;4.82;;;;;;;;;;4896827;29;20031;-86
2024/03/06 08:48:43;;;;;;;7.85;3.97;;;;;;;;;;4893482;29;20056;-88
2024/03/06 08:51:28;;;;;;;9.30;4.55;;;;;;;;;;4896134;29;20024;-88
2024/03/06 08:54:14;;;;;;;7.60;4.22;;;;;;;;;;4889860;29;20238;-85
2024/03/06 08:56:59;;;;;;;6.90;4.53;;;;;;;;;;4898197;29;20127;-88
2024/03/06 08:59:45;;;;;;;8.65;4.50;;;;;;;;;;4903815;29;20091;-84
2024/03/06 09:02:30;;;;;;;12.13;4.43;;;;;;;;;;4896578;29;20040;-88
2024/03/06 09:05:15;;;;;;;6.20;3.60;;;;;;;;;;4899744;29;20271;-89
2024/03/06 09:08:01;;;;;;;9.15;4.18;;;;;;;;;;4904266;29;20024;-88
2024/03/06 09:10:46;;;;;;;7.95;4.82;;;;;;;;;;4904562;29;20084;-86
2024/03/06 09:13:32;;;;;;;8.45;4.55;;;;;;;;;;4900325;29;20034;-86
2024/03/06 09:16:18;;;;;;;10.57;5.72;;;;;;;;;;4894084;29;20758;-87
2024/03/06 09:19:03;;;;;;;8.23;4.18;;;;;;;;;;4894381;29;20499;-88
2024/03/06 09:21:49;;;;;;;8.07;4.78;;;;;;;;;;4899014;29;20036;-89
2024/03/06 09:24:40;;;;;;;6.75;4.13;;;;;;;;;;4896294;29;20134;-89
2024/03/06 09:27:27;;;;;;;9.38;5.10;;;;;;;;;;4885654;29;20036;-89
2024/03/06 09:30:13;;;;;;;6.95;4.05;;;;;;;;;;4915851;29;20025;-87
2024/03/06 09:32:59;;;;;;;8.25;4.80;;;;;;;;;;4899913;29;20516;-88
2024/03/06 09:35:45;;;;;;;7.82;5.00;;;;;;;;;;4897052;29;20151;-88
2024/03/06 09:38:31;;;;;;;8.88;4.28;;;;;;;;;;4903211;29;20460;-89
2024/03/06 09:41:16;;;;;;;7.65;4.65;;;;;;;;;;4897471;29;20035;-90
2024/03/06 09:44:02;;;;;;;11.02;6.05;;;;;;;;;;4896688;29;20032;-89
2024/03/06 09:46:49;;;;;;;10.00;4.90;;;;;;;;;;4890434;29;20080;-89
2024/03/06 09:49:34;;;;;;;7.70;4.78;;;;;;;;;;4872215;29;20532;-89
2024/03/06 09:52:20;;;;;;;6.22;4.68;;;;;;;;;;4887497;29;20028;-89
2024/03/06 09:55:09;;;;;;;9.98;4.50;;;;;;;;;;4899576;29;20034;-89
2024/03/06 09:57:55;;;;;;;7.78;4.38;;;;;;;;;;4871339;29;20029;-87
2024/03/06 10:00:40;;;;;;;7.70;5.13;;;;;;;;;;4892177;29;20143;-88
2024/03/06 10:03:26;;;;;;;12.00;5.10;;;;;;;;;;4901483;29;20043;-90
2024/03/06 10:06:12;;;;;;;8.90;5.82;;;;;;;;;;4898203;29;20036;-87
2024/03/06 10:09:03;;;;;;;13.18;6.28;;;;;;;;;;4902765;29;20029;-86
2024/03/06 10:11:49;;;;;;;9.95;6.00;;;;;;;;;;4906399;29;20036;-85
2024/03/06 10:14:35;;;;;;;10.35;5.72;;;;;;;;;;4922560;29;20028;-85
2024/03/06 10:17:26;;;;;;;10.55;6.32;;;;;;;;;;4927019;29;20277;-87
2024/03/06 10:20:22;;;;;;;10.05;6.60;;;;;;;;;;4933629;29;20040;-87
2024/03/06 10:23:08;;;;;;;9.48;6.07;;;;;;;;;;4918492;29;20040;-88
2024/03/06 10:25:54;;;;;;;11.20;6.78;;;;;;;;;;4892178;29;20051;-87
2024/03/06 10:28:44;;;;;;;10.05;5.93;;;;;;;;;;4888280;29;20519;-87
2024/03/06 10:31:31;;;;;;;9.77;6.43;;;;;;;;;;4892331;29;20039;-86
2024/03/06 10:34:16;;;;;;;11.35;6.80;;;;;;;;;;4896454;29;20433;-85
2024/03/06 10:37:05;;;;;;;10.43;6.28;;;;;;;;;;4894121;29;20111;-86
2024/03/06 10:39:52;;;;;;;9.55;6.93;;;;;;;;;;4891291;29;20095;-86
2024/03/06 10:42:37;;;;;;;10.48;6.63;;;;;;;;;;4899063;29;20492;-86
2024/03/06 10:45:26;;;;;;;11.50;7.47;;;;;;;;;;4894046;29;20409;-86
2024/03/06 10:48:12;;;;;;;11.47;7.10;;;;;;;;;;4885064;29;20062;-86
2024/03/06 10:50:59;;;;;;;13.38;7.55;;;;;;;;;;4892381;29;20027;-86
2024/03/06 10:53:46;;;;;;;13.88;7.85;;;;;;;;;;4896158;29;20036;-86
2024/03/06 10:56:31;;;;;;;13.52;7.95;;;;;;;;;;4902307;29;20160;-85
2024/03/06 10:59:17;;;;;;;11.05;7.50;;;;;;;;;;4896142;29;20067;-86
2024/03/06 11:02:03;;;;;;;11.95;8.23;;;;;;;;;;4908752;29;20036;-85
2024/03/06 11:04:48;;;;;;;12.00;9.50;;;;;;;;;;4886082;29;20043;-86
2024/03/06 11:07:34;;;;;;;14.30;9.45;;;;;;;;;;4905745;29;20083;-87
2024/03/06 11:10:32;;;;;;;20.00;10.45;;;;;;;;;;4901805;29;20069;-86
2024/03/06 11:13:17;;;;;;;16.35;10.70;;;;;;;;;;4898041;29;20027;-88
2024/03/06 11:16:02;;;;;;;15.23;10.00;;;;;;;;;;4900218;29;20083;-87
2024/03/06 11:18:48;;;;;;;14.68;10.20;;;;;;;;;;4897683;29;20052;-88
2024/03/06 11:21:33;;;;;;;14.10;10.30;;;;;;;;;;4897621;29;20058;-87
2024/03/06 11:24:19;;;;;;;15.70;10.70;;;;;;;;;;4892013;29;20039;-85
2024/03/06 11:27:07;;;;;;;13.75;10.27;;;;;;;;;;4916646;29;20032;-85
2024/03/06 11:30:13;;;;;;;16.05;11.02;;;;;;;;;;4871552;29;20040;-82
2024/03/06 11:33:00;;;;;;;16.00;11.88;;;;;;;;;;4891469;29;20035;-81
2024/03/06 11:36:04;;;;;;;18.25;12.20;;;;;;;;;;4879038;29;20535;-82
2024/03/06 11:39:00;;;;;;;16.45;11.25;;;;;;;;;;4867203;29;20044;-87
2024/03/06 11:41:45;;;;;;;17.50;12.65;;;;;;;;;;4869465;29;20033;-88
2024/03/06 11:44:32;;;;;;;18.75;12.45;;;;;;;;;;4878986;29;20448;-89
2024/03/06 11:47:17;;;;;;;16.00;12.02;;;;;;;;;;4879172;29;20024;-88
2024/03/06 11:50:03;;;;;;;18.63;12.18;;;;;;;;;;4881111;29;20057;-88
2024/03/06 11:52:49;;;;;;;19.30;12.48;;;;;;;;;;4870361;29;20120;-88
2024/03/06 11:55:34;;;;;;;17.70;12.38;;;;;;;;;;4868987;29;20067;-85
2024/03/06 11:58:20;;;;;;;16.13;13.10;;;;;;;;;;4867478;29;20575;-89
2024/03/06 12:01:09;;;;;;;17.55;13.73;;;;;;;;;;4871303;29;20442;-90
2024/03/06 12:03:58;;;;;;;18.27;13.50;;;;;;;;;;4872543;29;20152;-89
2024/03/06 12:06:43;;;;;;;17.77;12.93;;;;;;;;;;4866509;29;20040;-90
2024/03/06 12:09:28;;;;;;;17.95;13.15;;;;;;;;;;4875963;29;20052;-89
2024/03/06 12:12:13;;;;;;;19.20;13.38;;;;;;;;;;4870736;29;20021;-89
2024/03/06 12:15:00;;;;;;;19.10;12.20;;;;;;;;;;4882675;29;20060;-89
2024/03/06 12:17:50;;;;;;;17.48;13.35;;;;;;;;;;4866077;29;20496;-90
2024/03/06 12:20:40;;;;;;;18.35;13.00;;;;;;;;;;4886523;29;20040;-90
2024/03/06 12:23:26;;;;;;;18.83;14.57;;;;;;;;;;4854739;29;20045;-79
2024/03/06 12:26:11;;;;;;;20.70;14.13;;;;;;;;;;4868758;29;20477;-79
2024/03/06 12:29:10;;;;;;;18.85;14.13;;;;;;;;;;4886878;29;20048;-78
2024/03/06 12:31:57;;;;;;;19.67;13.65;;;;;;;;;;4887391;29;20416;-79
2024/03/06 12:34:42;;;;;;;18.75;13.48;;;;;;;;;;4898686;29;20032;-79
2024/03/06 12:37:33;;;;;;;19.58;14.70;;;;;;;;;;4894563;29;20160;-81
2024/03/06 12:40:19;;;;;;;20.88;14.93;;;;;;;;;;4885827;29;20085;-79
2024/03/06 12:43:05;;;;;;;20.83;15.50;;;;;;;;;;4887623;29;20040;-81
2024/03/06 12:45:50;;;;;;;20.90;14.80;;;;;;;;;;4886232;29;20032;-80
2024/03/06 12:48:36;;;;;;;18.35;12.85;;;;;;;;;;4891422;29;20166;-80
2024/03/06 12:51:22;;;;;;;18.67;14.73;;;;;;;;;;4897622;29;20028;-78
2024/03/06 12:54:08;;;;;;;20.80;15.68;;;;;;;;;;4888295;29;20496;-88
2024/03/06 12:56:53;;;;;;;18.02;15.00;;;;;;;;;;4902813;29;20029;-88
2024/03/06 12:59:39;;;;;;;22.20;16.45;;;;;;;;;;4897858;29;20024;-89
2024/03/06 13:02:24;;;;;;;17.60;13.80;;;;;;;;;;4902909;29;20060;-85
2024/03/06 13:05:10;;;;;;;20.80;15.60;;;;;;;;;;4912691;29;20048;-89
2024/03/06 13:07:55;;;;;;;20.17;14.80;;;;;;;;;;4910719;29;20486;-89
2024/03/06 13:10:41;;;;;;;21.35;15.88;;;;;;;;;;4918264;29;20099;-88
2024/03/06 13:13:25;;;;;;;21.30;15.60;;;;;;;;;;4923155;29;20039;-89
2024/03/06 13:16:10;;;;;;;19.65;14.52;;;;;;;;;;4926717;29;20027;-89
2024/03/06 13:18:56;;;;;;;22.70;16.15;;;;;;;;;;4896394;29;20037;-87
2024/03/06 13:21:42;;;;;;;21.33;14.30;;;;;;;;;;4891909;29;20047;-88
2024/03/06 13:24:27;;;;;;;20.25;13.52;;;;;;;;;;4886354;29;20029;-87
2024/03/06 13:27:12;;;;;;;26.35;14.70;;;;;;;;;;4892017;29;20472;-87
2024/03/06 13:29:58;;;;;;;17.00;13.45;;;;;;;;;;4905947;29;20482;-87
2024/03/06 13:32:43;;;;;;;18.27;13.75;;;;;;;;;;4895649;29;20067;-87
2024/03/06 13:35:28;;;;;;;17.60;12.40;;;;;;;;;;4893844;29;20557;-88
2024/03/06 13:38:13;;;;;;;19.92;12.60;;;;;;;;;;4893475;29;20036;-88
2024/03/06 13:41:02;;;;;;;22.48;15.07;;;;;;;;;;4892377;29;20036;-88
2024/03/06 13:43:47;;;;;;;18.35;13.45;;;;;;;;;;4889765;29;20405;-88
2024/03/06 13:46:33;;;;;;;17.70;12.85;;;;;;;;;;4889798;29;20036;-89
2024/03/06 13:49:55;;;;;;;17.98;13.40;;;;;;;;;;4900797;29;20031;-87
2024/03/06 13:52:41;;;;;;;18.88;13.75;;;;;;;;;;4872770;29;20138;-88
2024/03/06 13:55:30;;;;;;;16.95;12.02;;;;;;;;;;4902913;29;20023;-85
2024/03/06 13:58:16;;;;;;;17.15;13.23;;;;;;;;;;4894893;29;20069;-88
2024/03/06 14:01:02;;;;;;;18.63;12.35;;;;;;;;;;4889844;29;20036;-88
2024/03/06 14:03:48;;;;;;;17.52;13.45;;;;;;;;;;4903358;29;20036;-88
2024/03/06 14:06:34;;;;;;;17.45;13.18;;;;;;;;;;4875951;29;20020;-86
2024/03/06 14:09:19;;;;;;;17.90;13.18;;;;;;;;;;4894057;29;20033;-87
2024/03/06 14:12:04;;;;;;;18.00;14.00;;;;;;;;;;4893512;29;20029;-87
2024/03/06 14:14:49;;;;;;;17.50;13.10;;;;;;;;;;4885295;29;20495;-86
2024/03/06 14:17:35;;;;;;;17.85;14.27;;;;;;;;;;4895341;29;20596;-85
2024/03/06 14:20:21;;;;;;;17.90;12.98;;;;;;;;;;4900115;29;20032;-87
2024/03/06 14:23:07;;;;;;;19.63;14.25;;;;;;;;;;4896024;29;20043;-88
2024/03/06 14:25:55;;;;;;;19.40;14.02;;;;;;;;;;4915458;29;20183;-89
2024/03/06 14:28:40;;;;;;;16.67;12.95;;;;;;;;;;4904599;29;20040;-86
2024/03/06 14:31:26;;;;;;;18.50;13.68;;;;;;;;;;4896801;29;20037;-89
2024/03/06 14:34:11;;;;;;;17.45;13.02;;;;;;;;;;4907105;29;20499;-88
2024/03/06 14:36:56;;;;;;;19.50;12.88;;;;;;;;;;4895621;29;20051;-86
2024/03/06 14:39:41;;;;;;;20.30;14.10;;;;;;;;;;4890207;29;20031;-88
2024/03/06 14:42:27;;;;;;;19.70;13.73;;;;;;;;;;4904248;29;20170;-86
2024/03/06 14:45:12;;;;;;;16.20;11.68;;;;;;;;;;4884890;29;20498;-88
2024/03/06 14:47:57;;;;;;;19.17;13.20;;;;;;;;;;4879179;29;20107;-88
2024/03/06 14:50:43;;;;;;;18.17;13.38;;;;;;;;;;4892831;29;20040;-84
2024/03/06 14:53:29;;;;;;;17.95;14.38;;;;;;;;;;4897332;29;20036;-88
2024/03/06 14:56:15;;;;;;;19.33;14.13;;;;;;;;;;4890782;29;20027;-88
2024/03/06 14:59:01;;;;;;;21.45;14.10;;;;;;;;;;4898628;29;20443;-86
2024/03/06 15:01:47;;;;;;;23.80;14.73;;;;;;;;;;4898383;29;20040;-86
2024/03/06 15:04:33;;;;;;;15.77;11.52;;;;;;;;;;4895053;29;20028;-86
2024/03/06 15:07:18;;;;;;;19.23;14.63;;;;;;;;;;4903453;29;20027;-85
2024/03/06 15:10:04;;;;;;;16.80;12.90;;;;;;;;;;4904017;29;20032;-88
2024/03/06 15:12:52;;;;;;;18.40;13.05;;;;;;;;;;4907251;29;20519;-84
2024/03/06 15:15:38;;;;;;;17.80;13.27;;;;;;;;;;4897445;29;20103;-84
2024/03/06 15:18:24;;;;;;;17.52;12.75;;;;;;;;;;4902188;29;20039;-85
2024/03/06 15:21:10;;;;;;;17.48;12.60;;;;;;;;;;4909428;29;20050;-86
2024/03/06 15:23:55;;;;;;;15.82;12.13;;;;;;;;;;4913032;29;20115;-85
2024/03/06 15:26:41;;;;;;;16.40;12.57;;;;;;;;;;4911801;29;20055;-88
2024/03/06 15:29:26;;;;;;;15.57;11.32;;;;;;;;;;4909404;29;20044;-85
2024/03/06 15:32:11;;;;;;;16.77;12.63;;;;;;;;;;4903278;29;20128;-88
2024/03/06 15:34:58;;;;;;;19.42;14.18;;;;;;;;;;4885582;29;20029;-87
2024/03/06 15:37:43;;;;;;;16.38;11.95;;;;;;;;;;4901330;29;20376;-89
2024/03/06 15:40:29;;;;;;;19.52;13.18;;;;;;;;;;4900371;29;20464;-88
2024/03/06 15:43:14;;;;;;;21.42;13.60;;;;;;;;;;4907951;29;20111;-89
2024/03/06 15:45:59;;;;;;;18.33;13.00;;;;;;;;;;4911233;29;20060;-88
2024/03/06 15:48:45;;;;;;;17.20;12.43;;;;;;;;;;4899352;29;20024;-89
2024/03/06 15:51:30;;;;;;;20.88;14.68;;;;;;;;;;4895091;29;20032;-85
2024/03/06 15:54:15;;;;;;;21.48;14.88;;;;;;;;;;4901799;29;20506;-88
2024/03/06 15:57:00;;;;;;;21.63;16.05;;;;;;;;;;4893023;29;20123;-87
2024/03/06 15:59:46;;;;;;;24.70;16.13;;;;;;;;;;4898664;29;20024;-86
2024/03/06 16:02:32;;;;;;;22.58;15.65;;;;;;;;;;4895314;29;20646;-88
2024/03/06 16:05:17;;;;;;;21.80;15.35;;;;;;;;;;4883706;29;20024;-90
2024/03/06 16:08:03;;;;;;;20.67;14.43;;;;;;;;;;4896834;29;20040;-87
2024/03/06 16:10:48;;;;;;;21.98;14.30;;;;;;;;;;4895817;29;20083;-87
2024/03/06 16:13:34;;;;;;;22.98;15.93;;;;;;;;;;4890239;29;20030;-88
2024/03/06 16:16:19;;;;;;;25.40;17.10;;;;;;;;;;4899282;29;20028;-89
2024/03/06 16:19:04;;;;;;;26.27;17.83;;;;;;;;;;4897048;29;20021;-89
2024/03/06 16:21:51;;;;;;;24.10;16.65;;;;;;;;;;4897834;29;20473;-89
2024/03/06 16:24:36;;;;;;;24.58;17.75;;;;;;;;;;4891263;29;20535;-86
2024/03/06 16:27:26;;;;;;;25.38;16.50;;;;;;;;;;4900619;29;20039;-90
2024/03/06 16:30:24;;;;;;;23.52;16.58;;;;;;;;;;4915996;29;20042;-91
2024/03/06 16:37:00;;;;;;;28.42;18.75;;;;;;;;;;4894117;29;20035;-86
2024/03/06 16:39:47;;;;;;;25.23;17.23;;;;;;;;;;4897150;29;20044;-86
2024/03/06 16:42:32;;;;;;;28.17;17.90;;;;;;;;;;4900927;29;20055;-85
2024/03/06 16:45:18;;;;;;;25.70;17.15;;;;;;;;;;4910802;29;20103;-88
2024/03/06 16:48:03;;;;;;;25.15;17.40;;;;;;;;;;4899219;29;20032;-89
2024/03/06 16:50:49;;;;;;;26.83;19.98;;;;;;;;;;4907263;29;20803;-84
2024/03/06 16:53:36;;;;;;;27.65;18.55;;;;;;;;;;4895298;29;20091;-85
2024/03/06 16:56:22;;;;;;;29.13;19.17;;;;;;;;;;4898247;29;20035;-83
2024/03/06 16:59:07;;;;;;;26.50;17.38;;;;;;;;;;4887490;29;20170;-81
2024/03/06 17:01:53;;;;;;;28.58;20.05;;;;;;;;;;4903004;29;20480;-80
2024/03/06 17:04:39;;;;;;;27.10;18.15;;;;;;;;;;4898753;29;20024;-81
2024/03/06 17:07:24;;;;;;;27.63;18.83;;;;;;;;;;4895306;29;20388;-81
2024/03/06 17:10:09;;;;;;;27.42;18.88;;;;;;;;;;4903481;29;20024;-89
2024/03/06 17:12:56;;;;;;;30.73;19.40;;;;;;;;;;4895632;29;20036;-85
2024/03/06 17:15:42;;;;;;;26.40;17.70;;;;;;;;;;4894586;29;20035;-86
2024/03/06 17:18:27;;;;;;;28.73;18.73;;;;;;;;;;4891441;29;20032;-86
2024/03/06 17:21:12;;;;;;;32.92;20.27;;;;;;;;;;4898906;29;20613;-86
2024/03/06 17:23:57;;;;;;;26.80;19.95;;;;;;;;;;4882270;29;20044;-89
2024/03/06 17:26:43;;;;;;;28.48;21.00;;;;;;;;;;4923245;29;20087;-88
2024/03/06 17:29:28;;;;;;;28.52;19.05;;;;;;;;;;4887392;29;20479;-88
2024/03/06 17:32:14;;;;;;;26.80;18.50;;;;;;;;;;4902526;29;20036;-86
2024/03/06 17:35:00;;;;;;;28.67;20.95;;;;;;;;;;4898740;29;20028;-84
2024/03/06 17:37:46;;;;;;;28.27;19.13;;;;;;;;;;4894200;29;20567;-84
2024/03/06 17:40:31;;;;;;;26.67;17.73;;;;;;;;;;4896046;29;20129;-84
2024/03/06 17:43:16;;;;;;;26.70;18.83;;;;;;;;;;4899493;29;20555;-84
2024/03/06 17:46:02;;;;;;;27.10;18.75;;;;;;;;;;4903106;29;20468;-84
2024/03/06 17:48:47;;;;;;;28.45;19.15;;;;;;;;;;4904743;29;20499;-84
2024/03/06 17:51:34;;;;;;;27.58;18.75;;;;;;;;;;4891374;29;20092;-83
2024/03/06 17:54:20;;;;;;;27.00;19.23;;;;;;;;;;4886295;29;20044;-86
2024/03/06 17:57:05;;;;;;;26.63;18.17;;;;;;;;;;4884456;29;20064;-84
2024/03/06 17:59:51;;;;;;;27.25;18.58;;;;;;;;;;4908330;29;20043;-87
2024/03/06 18:02:36;;;;;;;27.10;17.77;;;;;;;;;;4911381;29;20562;-87
2024/03/06 18:05:22;;;;;;;27.20;17.85;;;;;;;;;;4901014;29;20027;-86
2024/03/06 18:08:07;;;;;;;24.25;17.33;;;;;;;;;;4904387;29;20372;-88
2024/03/06 18:10:53;;;;;;;24.85;17.52;;;;;;;;;;4911470;29;20399;-90
2024/03/06 18:13:39;;;;;;;23.90;17.15;;;;;;;;;;4900403;29;20024;-88
2024/03/06 18:16:24;;;;;;;24.33;17.30;;;;;;;;;;4908461;29;20030;-87
2024/03/06 18:19:09;;;;;;;26.48;16.92;;;;;;;;;;4901537;29;20118;-89
2024/03/06 18:21:54;;;;;;;23.23;17.00;;;;;;;;;;4884536;29;20044;-87
2024/03/06 18:24:40;;;;;;;25.10;16.83;;;;;;;;;;4904920;29;20494;-87
2024/03/06 18:27:25;;;;;;;25.98;17.33;;;;;;;;;;4900396;29;20055;-86
2024/03/06 18:30:11;;;;;;;25.27;17.73;;;;;;;;;;4910053;29;20024;-87
2024/03/06 18:32:56;;;;;;;27.10;17.90;;;;;;;;;;4894195;29;20032;-88
2024/03/06 18:35:42;;;;;;;28.27;17.55;;;;;;;;;;4903001;29;20036;-88
2024/03/06 18:38:27;;;;;;;27.33;17.85;;;;;;;;;;4900246;29;20040;-88
2024/03/06 18:41:14;;;;;;;23.85;16.67;;;;;;;;;;4888565;29;20597;-90
2024/03/06 18:43:59;;;;;;;26.85;17.90;;;;;;;;;;4885413;29;20040;-89
2024/03/06 18:46:45;;;;;;;25.05;17.42;;;;;;;;;;4895342;29;20035;-90
2024/03/06 18:49:30;;;;;;;26.23;18.42;;;;;;;;;;4898587;29;20032;-88
2024/03/06 18:52:16;;;;;;;23.92;17.02;;;;;;;;;;4920863;29;20458;-88
2024/03/06 18:55:01;;;;;;;27.17;19.08;;;;;;;;;;4887494;29;20100;-91
2024/03/06 18:57:47;;;;;;;24.55;16.83;;;;;;;;;;4907427;29;20035;-91
2024/03/06 19:00:33;;;;;;;26.00;18.83;;;;;;;;;;4908486;29;20024;-88
2024/03/06 19:03:19;;;;;;;28.30;19.30;;;;;;;;;;4887749;29;20032;-87
2024/03/06 19:06:06;;;;;;;25.08;17.75;;;;;;;;;;4901378;29;20115;-87
2024/03/06 19:08:51;;;;;;;25.85;17.70;;;;;;;;;;4898275;29;20495;-86
2024/03/06 19:11:36;;;;;;;24.23;18.23;;;;;;;;;;4913022;29;20023;-86
2024/03/06 19:14:22;;;;;;;31.27;20.40;;;;;;;;;;4903782;29;20555;-87
2024/03/06 19:17:07;;;;;;;31.02;20.33;;;;;;;;;;4918090;29;20051;-86
2024/03/06 19:19:52;;;;;;;27.95;18.85;;;;;;;;;;4905336;29;20053;-85
2024/03/06 19:22:38;;;;;;;28.67;20.85;;;;;;;;;;4895416;29;20095;-89
2024/03/06 19:25:23;;;;;;;29.23;19.58;;;;;;;;;;4907706;29;20799;-87
2024/03/06 19:28:09;;;;;;;31.20;21.85;;;;;;;;;;4901535;29;20487;-85
2024/03/06 19:30:54;;;;;;;30.95;21.33;;;;;;;;;;4901605;29;20031;-87
2024/03/06 19:33:39;;;;;;;29.35;18.50;;;;;;;;;;4898858;29;20035;-87
2024/03/06 19:36:25;;;;;;;32.13;19.73;;;;;;;;;;4906273;29;20491;-86
2024/03/06 19:39:10;;;;;;;32.05;21.55;;;;;;;;;;4900893;29;20173;-87
2024/03/06 19:41:57;;;;;;;31.33;20.83;;;;;;;;;;4912345;29;20032;-88
2024/03/06 19:44:45;;;;;;;28.33;19.58;;;;;;;;;;4895214;29;20028;-87
2024/03/06 19:47:31;;;;;;;26.40;19.08;;;;;;;;;;4900258;29;20083;-88
2024/03/06 19:50:16;;;;;;;31.05;20.67;;;;;;;;;;4899275;29;20464;-87
2024/03/06 19:53:02;;;;;;;30.25;21.13;;;;;;;;;;4900594;29;20044;-87
2024/03/06 19:55:48;;;;;;;29.58;19.92;;;;;;;;;;4898513;29;20040;-86
2024/03/06 19:58:33;;;;;;;32.63;20.42;;;;;;;;;;4911892;29;20035;-86
2024/03/06 20:01:19;;;;;;;31.52;20.02;;;;;;;;;;4899082;29;20700;-86
2024/03/06 20:04:05;;;;;;;27.75;20.35;;;;;;;;;;4898560;29;20055;-85
2024/03/06 20:06:50;;;;;;;31.35;21.08;;;;;;;;;;4903941;29;20064;-86
2024/03/06 20:09:36;;;;;;;31.02;21.42;;;;;;;;;;4900313;29;20040;-84
2024/03/06 20:12:21;;;;;;;32.90;21.30;;;;;;;;;;4898061;29;20060;-87
2024/03/06 20:15:06;;;;;;;27.27;18.80;;;;;;;;;;4907494;29;20032;-86
2024/03/06 20:17:52;;;;;;;30.63;21.75;;;;;;;;;;4900363;29;20028;-86
2024/03/06 20:20:37;;;;;;;34.58;22.75;;;;;;;;;;4899328;29;20036;-86
2024/03/06 20:23:23;;;;;;;31.05;20.27;;;;;;;;;;4912002;29;20531;-85
2024/03/06 20:26:09;;;;;;;33.13;21.98;;;;;;;;;;4911584;29;20487;-85
2024/03/06 20:28:55;;;;;;;29.20;20.30;;;;;;;;;;4897383;29;20156;-86
2024/03/06 20:31:42;;;;;;;28.35;20.20;;;;;;;;;;4898222;29;20020;-86
2024/03/06 20:34:27;;;;;;;29.83;20.08;;;;;;;;;;4897983;29;20028;-87
2024/03/06 20:37:15;;;;;;;36.85;20.35;;;;;;;;;;4915901;29;20494;-89
2024/03/06 20:40:01;;;;;;;29.55;20.45;;;;;;;;;;4919763;29;20046;-88
2024/03/06 20:42:46;;;;;;;29.20;19.42;;;;;;;;;;4895331;29;20120;-84
2024/03/06 20:45:32;;;;;;;31.35;21.10;;;;;;;;;;4897948;29;20036;-83
2024/03/06 20:48:17;;;;;;;29.40;19.52;;;;;;;;;;4912110;29;20027;-86
2024/03/06 20:51:03;;;;;;;30.17;20.00;;;;;;;;;;4898342;29;20024;-84
2024/03/06 20:53:48;;;;;;;28.65;20.13;;;;;;;;;;4898456;29;20024;-85
2024/03/06 20:56:33;;;;;;;31.35;20.83;;;;;;;;;;4897882;29;20383;-85
2024/03/06 20:59:19;;;;;;;32.65;21.05;;;;;;;;;;4895942;29;20163;-85
2024/03/06 21:02:05;;;;;;;30.63;20.15;;;;;;;;;;4891407;29;20024;-85
2024/03/06 21:04:50;;;;;;;30.65;19.88;;;;;;;;;;4897818;29;20031;-84
2024/03/06 21:07:36;;;;;;;33.33;21.13;;;;;;;;;;4892887;29;20459;-86
2024/03/06 21:10:21;;;;;;;32.60;21.58;;;;;;;;;;4898767;29;20048;-86